Time;durP1;ratioP1;P1;durP2;ratioP2;P2;SDS_P1;SDS_P2;PMS_P1;PMS_P2;Temp;Humidity;BMP_temperature;BMP_pressure;BME280_temperature;BME280_humidity;BME280_pressure;Samples;Min_cycle;Max_cycle;Signal;HPM_P1;HPM_P2
2022/06/27 04:50:25;;;;;;;1.50;1.40;;;;;;;20.52;71.35;96705.13;6119154;23;20167;-94
2022/06/27 04:53:20;;;;;;;1.43;1.33;;;;;;;20.83;70.65;96701.50;6098879;23;20255;-93
2022/06/27 04:55:47;;;;;;;1.30;1.30;;;;;;;19.96;70.68;96547.50;6131055;23;20225;-93
2022/06/27 04:58:13;;;;;;;1.30;1.27;;;;;;;21.48;70.30;96844.16;6107402;23;20147;-95
2022/06/27 05:00:40;;;;;;;1.20;1.20;;;;;;;18.27;69.68;96262.88;6105213;23;20147;-94
2022/06/27 05:03:07;;;;;;;1.50;1.40;;;;;;;20.13;69.92;96642.25;6125954;23;20191;-93
2022/06/27 05:05:34;;;;;;;1.50;1.40;;;;;;;21.77;70.16;96908.66;6102078;23;20147;-93
2022/06/27 05:08:01;;;;;;;1.57;1.43;;;;;;;19.90;69.92;96521.88;6102095;23;20144;-93
2022/06/27 05:10:28;;;;;;;1.60;1.50;;;;;;;22.01;70.61;96920.22;6101961;23;20155;-93
2022/06/27 05:37:32;;;;;;;1.33;1.30;;;;;;;21.68;70.08;96876.94;6125300;23;20171;-90
2022/06/27 05:53:34;;;;;;;1.50;1.40;;;;;;;18.61;70.02;96366.22;6124278;23;20242;-93
2022/06/27 05:58:43;;;;;;;1.50;1.40;;;;;;;19.68;69.83;96609.78;6115690;23;20248;-91
2022/06/27 06:01:10;;;;;;;1.33;1.30;;;;;;;19.69;70.04;96596.22;6048599;23;20187;-92
2022/06/27 06:03:42;;;;;;;1.83;1.53;;;;;;;20.02;69.90;96627.53;6050588;23;20184;-92
2022/06/27 06:06:09;;;;;;;1.50;1.40;;;;;;;20.80;70.59;96799.34;6049196;23;20157;-92
2022/06/27 06:08:40;;;;;;;1.40;1.30;;;;;;;19.99;70.12;96662.31;6026372;23;20157;-92
2022/06/27 06:43:41;;;;;;;14.23;3.03;;;;;;;22.40;70.35;97042.91;6118395;23;20223;-92
2022/06/27 06:46:10;;;;;;;8.93;2.90;;;;;;;23.14;70.14;97157.88;6073636;23;20172;-92
2022/06/27 06:48:37;;;;;;;10.00;2.77;;;;;;;23.29;70.40;97178.69;6074138;23;20195;-92
2022/06/27 06:51:05;;;;;;;8.63;2.93;;;;;;;22.92;69.40;97115.63;6072095;23;20519;-90
2022/06/27 06:53:32;;;;;;;7.00;2.30;;;;;;;22.49;70.06;97046.50;6096079;23;20175;-91
2022/06/27 06:55:59;;;;;;;11.77;3.00;;;;;;;23.29;70.23;97183.81;6095373;23;20171;-91
2022/06/27 06:58:26;;;;;;;10.80;2.20;;;;;;;23.69;70.40;97247.78;6120593;23;20171;-90
2022/06/27 07:00:52;;;;;;;8.70;2.53;;;;;;;23.05;70.46;97153.47;6116629;23;20171;-91
2022/06/27 07:03:20;;;;;;;6.57;2.60;;;;;;;23.27;70.14;97173.53;6070727;23;20203;-92
2022/06/27 07:05:47;;;;;;;9.03;2.40;;;;;;;22.52;70.41;97041.47;6095172;23;20163;-92
2022/06/27 07:08:14;;;;;;;6.27;2.10;;;;;;;22.91;70.22;97105.34;6119278;23;20176;-92
2022/06/27 07:10:41;;;;;;;8.30;2.60;;;;;;;22.90;70.10;97114.75;6071880;23;20264;-92
2022/06/27 07:13:08;;;;;;;8.00;2.40;;;;;;;22.88;70.32;97092.47;6071011;23;20180;-92
2022/06/27 07:15:35;;;;;;;4.93;2.20;;;;;;;22.33;70.38;97006.13;6094608;23;20167;-92
2022/06/27 07:18:10;;;;;;;9.37;2.67;;;;;;;22.81;69.84;97085.53;6096537;23;20175;-93
2022/06/27 07:20:37;;;;;;;6.70;1.90;;;;;;;23.27;70.15;97182.94;6119294;23;20163;-91
2022/06/27 07:23:04;;;;;;;3.63;2.30;;;;;;;23.01;70.51;97148.25;6094741;23;20203;-92
2022/06/27 07:25:31;;;;;;;6.50;2.33;;;;;;;23.28;70.63;97174.41;6093904;23;20179;-92
2022/06/27 07:28:01;;;;;;;7.17;2.20;;;;;;;22.51;70.09;97039.75;6117198;23;20179;-92
2022/06/27 07:30:29;;;;;;;6.40;2.00;;;;;;;22.90;70.08;97101.94;6095709;23;20175;-92
2022/06/27 07:32:56;;;;;;;7.90;2.73;;;;;;;22.22;69.97;96982.03;6071478;23;20182;-92
2022/06/27 07:35:23;;;;;;;6.23;1.83;;;;;;;22.26;69.57;96991.47;6119881;23;20561;-92
2022/06/27 07:37:51;;;;;;;3.13;2.00;;;;;;;23.25;70.15;97159.84;6119840;23;20179;-91
2022/06/27 07:40:20;;;;;;;5.43;2.10;;;;;;;23.26;70.15;97176.94;6119664;23;20406;-92
2022/06/27 07:42:47;;;;;;;6.10;2.30;;;;;;;22.83;70.04;97083.88;6071163;23;20206;-91
2022/06/27 07:45:20;;;;;;;6.07;1.90;;;;;;;23.28;70.33;97166.69;6117967;23;20167;-93
2022/06/27 07:47:47;;;;;;;4.10;2.00;;;;;;;22.14;70.63;96970.78;6069527;23;20170;-92
2022/06/27 07:50:36;;;;;;;3.73;2.23;;;;;;;23.27;70.16;97173.53;6093321;23;20622;-91
2022/06/27 07:53:12;;;;;;;6.37;2.37;;;;;;;22.48;70.07;97047.38;6117502;23;20203;-92
2022/06/27 07:55:50;;;;;;;3.17;1.90;;;;;;;22.40;69.82;97025.00;6073125;23;20148;-91
2022/06/27 07:58:17;;;;;;;5.43;2.23;;;;;;;22.49;69.99;97054.19;6092429;23;20195;-92
2022/06/27 08:00:47;;;;;;;4.67;2.13;;;;;;;21.96;70.50;96949.13;6071100;23;20216;-92
2022/06/27 08:06:01;;;;;;;4.73;2.30;;;;;;;22.71;70.33;97088.78;6098682;23;20148;-92
2022/06/27 08:08:28;;;;;;;4.93;2.10;;;;;;;22.33;70.06;97013.81;6095784;23;20170;-91
2022/06/27 08:10:55;;;;;;;4.50;2.00;;;;;;;22.68;69.98;97084.44;6093509;23;20200;-91
2022/06/27 08:13:22;;;;;;;2.57;1.57;;;;;;;22.41;70.41;97029.31;6093058;23;20155;-92
2022/06/27 08:15:50;;;;;;;3.67;1.93;;;;;;;22.88;70.08;97106.16;6114323;23;20175;-92
2022/06/27 08:18:17;;;;;;;4.80;2.27;;;;;;;23.00;70.18;97136.25;6117967;23;20179;-92
2022/06/27 08:20:46;;;;;;;3.30;1.97;;;;;;;23.19;70.33;97172.53;6092046;23;20159;-92
2022/06/27 08:23:15;;;;;;;3.67;1.97;;;;;;;23.33;70.34;97196.69;6093293;23;20211;-91
2022/06/27 08:25:42;;;;;;;4.87;2.10;;;;;;;23.23;70.25;97176.84;6092511;23;20614;-91
2022/06/27 08:28:09;;;;;;;3.53;1.90;;;;;;;22.87;70.04;97111.25;6117315;23;20163;-91
2022/06/27 08:30:37;;;;;;;3.97;2.07;;;;;;;22.91;70.21;97120.72;6117256;23;20164;-91
2022/06/27 08:33:03;;;;;;;2.60;1.70;;;;;;;22.93;70.28;97127.63;6117193;23;20188;-91
2022/06/27 08:35:30;;;;;;;2.77;2.10;;;;;;;22.98;70.28;97137.94;6116998;23;20189;-92
2022/06/27 08:37:58;;;;;;;2.23;1.80;;;;;;;23.27;70.09;97188.91;6093109;23;20160;-93
2022/06/27 08:40:26;;;;;;;4.60;1.70;;;;;;;22.47;70.12;97060.13;6117829;23;20231;-92
2022/06/27 08:42:54;;;;;;;3.63;1.80;;;;;;;22.90;70.25;97131.81;6097895;23;20215;-92
2022/06/27 08:45:23;;;;;;;4.00;2.07;;;;;;;23.23;70.28;97188.78;6116694;23;20179;-91
2022/06/27 08:47:50;;;;;;;2.47;1.90;;;;;;;23.67;70.16;97253.69;6093340;23;20175;-91
2022/06/27 08:50:17;;;;;;;2.43;2.00;;;;;;;22.69;69.65;97090.44;6141279;23;20168;-92
2022/06/27 08:52:48;;;;;;;4.07;1.90;;;;;;;22.98;70.13;97149.03;6115925;23;20239;-89
2022/06/27 08:55:15;;;;;;;4.87;2.20;;;;;;;22.44;70.09;97053.25;6115535;23;20148;-91
2022/06/27 08:57:42;;;;;;;2.97;1.80;;;;;;;22.48;70.08;97055.03;6092329;23;20226;-91
2022/06/27 09:00:11;;;;;;;2.17;1.77;;;;;;;22.87;70.26;97116.38;6117256;23;20159;-91
2022/06/27 09:02:42;;;;;;;1.87;1.73;;;;;;;22.87;70.09;97113.81;6092184;23;20180;-91
2022/06/27 09:05:23;;;;;;;3.93;2.07;;;;;;;22.15;69.95;96998.09;6119027;23;20148;-92
2022/06/27 09:07:59;;;;;;;2.57;1.90;;;;;;;22.30;70.07;97016.31;6094931;23;20180;-91
2022/06/27 09:10:42;;;;;;;2.53;1.60;;;;;;;23.29;70.25;97191.50;6118677;23;20191;-92
2022/06/27 09:13:11;;;;;;;2.37;1.80;;;;;;;22.92;69.96;97114.78;6117940;23;20179;-92
2022/06/27 09:15:53;;;;;;;3.50;1.73;;;;;;;23.67;70.12;97246.88;6118752;23;20164;-90
2022/06/27 09:18:24;;;;;;;3.13;1.80;;;;;;;22.76;70.29;97105.94;6118871;23;20179;-92
2022/06/27 09:20:54;;;;;;;2.67;2.17;;;;;;;23.01;70.25;97145.69;6118595;23;20187;-92
2022/06/27 09:23:39;;;;;;;2.83;2.03;;;;;;;23.25;70.14;97170.09;6118497;23;20207;-92
2022/06/27 09:26:13;;;;;;;2.27;1.57;;;;;;;22.87;70.24;97122.38;6118211;23;20151;-92
2022/06/27 09:28:45;;;;;;;2.47;1.93;;;;;;;23.66;70.41;97237.47;6119635;23;20154;-91
2022/06/27 09:31:33;;;;;;;2.33;1.90;;;;;;;22.86;70.18;97115.50;6118128;23;20270;-92
2022/06/27 09:34:16;;;;;;;1.73;1.63;;;;;;;22.87;70.08;97111.25;6119477;23;20163;-92
2022/06/27 09:36:44;;;;;;;2.43;1.67;;;;;;;23.67;70.34;97248.56;6119272;23;20175;-92
2022/06/27 09:39:18;;;;;;;3.63;1.93;;;;;;;23.67;70.37;97240.88;6119627;23;20164;-92
2022/06/27 09:41:54;;;;;;;2.27;1.80;;;;;;;22.80;70.34;97094.91;6118355;23;20211;-92
2022/06/27 09:44:24;;;;;;;2.43;1.80;;;;;;;22.38;70.25;97027.53;6072065;23;20250;-92
2022/06/27 09:46:57;;;;;;;2.63;2.03;;;;;;;22.82;70.21;97116.31;6071613;23;20211;-92
2022/06/27 09:49:26;;;;;;;3.70;1.90;;;;;;;22.86;70.34;97102.69;6072522;23;20408;-92
2022/06/27 09:51:54;;;;;;;2.30;1.87;;;;;;;21.95;70.54;96947.38;6073358;23;20182;-92
2022/06/27 09:54:22;;;;;;;1.60;1.50;;;;;;;22.41;70.48;97021.63;6072258;23;20152;-92
2022/06/27 09:56:50;;;;;;;3.40;1.63;;;;;;;23.23;70.02;97176.84;6071252;23;20226;-92
2022/06/27 09:59:17;;;;;;;3.97;1.83;;;;;;;22.86;70.33;97105.25;6072319;23;20202;-92
2022/06/27 10:01:44;;;;;;;1.97;1.40;;;;;;;22.50;70.21;97039.72;6094265;23;20180;-92
2022/06/27 10:04:10;;;;;;;2.20;2.00;;;;;;;22.86;70.22;97094.19;6095032;23;20200;-92
2022/06/27 10:06:39;;;;;;;2.07;1.60;;;;;;;23.33;70.34;97172.78;6094772;23;20194;-91
2022/06/27 10:09:08;;;;;;;2.10;1.60;;;;;;;22.89;70.21;97097.63;6070757;23;20187;-91
2022/06/27 10:11:36;;;;;;;1.97;1.60;;;;;;;23.31;70.35;97182.13;6047479;23;20187;-92
2022/06/27 10:14:13;;;;;;;1.70;1.60;;;;;;;23.67;70.37;97234.03;6070883;23;20208;-92
2022/06/27 10:16:51;;;;;;;3.03;2.00;;;;;;;23.11;70.22;97143.31;6118719;23;20163;-92
2022/06/27 10:19:17;;;;;;;1.87;1.63;;;;;;;22.90;70.14;97096.81;6071308;23;20170;-92
2022/06/27 10:21:48;;;;;;;4.10;1.73;;;;;;;22.20;70.11;96996.47;6094929;23;20187;-92
2022/06/27 10:24:28;;;;;;;2.47;1.80;;;;;;;23.67;70.62;97230.59;6120447;23;20184;-91
2022/06/27 10:26:56;;;;;;;1.83;1.60;;;;;;;21.92;70.45;96924.28;6120148;23;20147;-91
2022/06/27 10:29:29;;;;;;;1.73;1.63;;;;;;;23.65;70.35;97220.31;6070691;23;20164;-91
2022/06/27 10:31:56;;;;;;;1.70;1.40;;;;;;;22.53;70.50;97027.00;6118268;23;20183;-90
2022/06/27 10:34:46;;;;;;;2.60;1.50;;;;;;;23.64;70.66;97228.88;6117928;23;20179;-91
2022/06/27 10:37:19;;;;;;;1.73;1.50;;;;;;;23.65;70.49;97227.16;6118935;23;20152;-92
2022/06/27 10:39:45;;;;;;;1.87;1.60;;;;;;;23.01;70.14;97120.06;6093706;23;20191;-91
2022/06/27 10:42:52;;;;;;;2.07;1.77;;;;;;;23.65;70.36;97224.59;6076510;23;20215;-91
2022/06/27 10:45:19;;;;;;;2.07;1.50;;;;;;;23.65;70.23;97224.59;6094340;23;20159;-92
2022/06/27 10:47:49;;;;;;;1.60;1.50;;;;;;;22.24;70.65;96994.84;6119713;23;20152;-92
2022/06/27 10:50:17;;;;;;;1.80;1.60;;;;;;;22.51;70.52;97032.09;6071628;23;20179;-93
2022/06/27 10:52:44;;;;;;;1.50;1.40;;;;;;;21.85;70.11;96914.78;6094231;23;20243;-90
2022/06/27 10:55:29;;;;;;;1.50;1.40;;;;;;;22.51;70.36;97008.16;6093980;23;20184;-93
2022/06/27 10:57:56;;;;;;;1.50;1.40;;;;;;;22.61;70.21;97045.88;6071454;23;20155;-93
2022/06/27 11:00:42;;;;;;;1.70;1.60;;;;;;;21.60;70.33;96855.50;6047600;23;20156;-92
2022/06/27 11:03:19;;;;;;;2.80;1.60;;;;;;;22.16;70.23;96969.09;6070364;23;20218;-92
2022/06/27 11:06:04;;;;;;;1.50;1.40;;;;;;;22.27;70.45;96990.66;6095158;23;20175;-92
2022/06/27 11:08:33;;;;;;;1.67;1.57;;;;;;;22.21;70.57;96984.56;6095714;23;20199;-92
2022/06/27 11:10:59;;;;;;;1.70;1.50;;;;;;;23.27;70.40;97149.59;6070673;23;20156;-92
2022/06/27 11:13:52;;;;;;;2.83;1.80;;;;;;;22.48;70.14;97024.31;6046485;23;20179;-91
2022/06/27 11:16:24;;;;;;;2.03;1.60;;;;;;;22.96;70.33;97096.03;6094596;23;20183;-92
2022/06/27 11:19:01;;;;;;;1.70;1.60;;;;;;;23.65;70.45;97209.22;6072168;23;20171;-92
2022/06/27 11:21:31;;;;;;;1.67;1.57;;;;;;;22.77;70.37;97053.03;6118192;23;20222;-92
2022/06/27 11:24:03;;;;;;;2.17;1.63;;;;;;;22.89;70.36;97089.94;6071217;23;20230;-92
2022/06/27 11:26:34;;;;;;;1.73;1.60;;;;;;;22.84;70.58;97068.53;6070229;23;20155;-92
2022/06/27 11:32:01;;;;;;;2.10;1.77;;;;;;;21.95;70.59;96938.00;6078558;23;20172;-93
2022/06/27 11:34:42;;;;;;;2.97;1.60;;;;;;;22.19;70.56;96960.63;6073780;23;20151;-92
2022/06/27 11:37:13;;;;;;;1.77;1.67;;;;;;;23.63;70.44;97211.75;6071745;23;20163;-94
2022/06/27 11:39:40;;;;;;;1.60;1.50;;;;;;;22.81;70.38;97071.03;6070336;23;20152;-92
2022/06/27 11:42:10;;;;;;;1.63;1.50;;;;;;;21.95;70.15;96925.22;6051141;23;20172;-93
2022/06/27 11:44:39;;;;;;;1.70;1.60;;;;;;;22.08;70.26;96947.63;6095124;23;20192;-93
2022/06/27 11:47:07;;;;;;;1.50;1.40;;;;;;;22.22;70.05;96974.34;6071594;23;20188;-93
2022/06/27 11:49:35;;;;;;;2.87;1.50;;;;;;;22.88;70.55;97089.91;6048249;23;20191;-94
2022/06/27 11:52:13;;;;;;;2.87;1.60;;;;;;;22.24;70.20;96965.00;6074085;23;20197;-93
2022/06/27 11:54:45;;;;;;;1.50;1.40;;;;;;;21.89;70.09;96912.31;6071207;23;20148;-92
2022/06/27 11:57:28;;;;;;;1.60;1.50;;;;;;;23.65;70.39;97211.78;6073237;23;20155;-93
2022/06/27 11:59:58;;;;;;;5.43;1.60;;;;;;;22.51;70.28;97038.91;6095258;23;20162;-94
2022/06/27 12:02:35;;;;;;;1.87;1.60;;;;;;;22.00;70.29;96948.34;6071302;23;20420;-92
2022/06/27 12:05:09;;;;;;;2.63;1.80;;;;;;;23.64;70.53;97218.59;6072030;23;20175;-94
2022/06/27 12:07:58;;;;;;;1.50;1.40;;;;;;;23.67;70.33;97218.66;6096690;23;20148;-93
2022/06/27 12:10:46;;;;;;;1.70;1.60;;;;;;;23.15;70.33;97157.06;6071993;23;20147;-93
2022/06/27 12:13:15;;;;;;;2.37;1.60;;;;;;;23.29;70.45;97164.16;6047709;23;20184;-93
2022/06/27 12:15:45;;;;;;;2.07;1.87;;;;;;;22.58;70.44;97054.41;6071629;23;20164;-91
2022/06/27 12:18:14;;;;;;;1.63;1.50;;;;;;;22.50;70.33;97019.22;6070841;23;20164;-92
2022/06/27 12:20:42;;;;;;;1.73;1.63;;;;;;;23.21;70.39;97159.72;6048173;23;20164;-92
2022/06/27 12:23:09;;;;;;;2.33;1.80;;;;;;;22.67;70.39;97063.94;6071316;23;20188;-92
2022/06/27 12:25:35;;;;;;;2.10;1.90;;;;;;;22.09;70.41;96979.22;6095299;23;20160;-92
2022/06/27 12:28:04;;;;;;;2.03;1.70;;;;;;;22.35;70.21;97024.06;6093964;23;20219;-93
2022/06/27 12:30:31;;;;;;;6.13;1.90;;;;;;;23.19;70.66;97163.94;6068717;23;20180;-92
2022/06/27 12:32:58;;;;;;;3.83;1.87;;;;;;;22.06;70.44;96984.28;6069587;23;20171;-93
2022/06/27 12:35:25;;;;;;;2.57;1.67;;;;;;;22.50;70.53;97048.25;6092861;23;20164;-93
2022/06/27 12:38:00;;;;;;;2.00;1.80;;;;;;;22.61;70.66;97085.19;6045380;23;20168;-92
2022/06/27 12:40:27;;;;;;;1.93;1.47;;;;;;;22.94;70.70;97138.72;6069625;23;20208;-92
2022/06/27 12:43:01;;;;;;;2.97;1.80;;;;;;;23.26;70.32;97194.00;6095745;23;20182;-92
2022/06/27 12:45:27;;;;;;;3.53;1.63;;;;;;;23.17;70.44;97186.13;6094957;23;20182;-93
2022/06/27 12:47:56;;;;;;;3.23;1.60;;;;;;;22.12;70.36;96989.50;6095295;23;20227;-93
2022/06/27 12:50:23;;;;;;;1.70;1.60;;;;;;;22.82;70.10;97108.63;6072210;23;20160;-93
2022/06/27 12:52:49;;;;;;;2.93;1.80;;;;;;;21.87;70.18;96954.06;6072009;23;20167;-93
2022/06/27 12:55:16;;;;;;;1.80;1.60;;;;;;;21.67;70.23;96923.81;6073603;23;20190;-94
2022/06/27 12:57:54;;;;;;;2.13;1.60;;;;;;;22.47;70.45;97063.53;6076855;23;20151;-93
2022/06/27 13:00:21;;;;;;;3.83;1.53;;;;;;;22.30;70.53;97026.53;6070606;23;20200;-94
2022/06/27 13:02:48;;;;;;;2.60;1.90;;;;;;;21.80;70.39;96967.56;6071525;23;20167;-92
2022/06/27 13:05:15;;;;;;;2.20;1.80;;;;;;;22.50;70.39;97090.91;6048094;23;20167;-94
2022/06/27 13:07:41;;;;;;;2.30;1.70;;;;;;;22.29;70.38;97040.16;6073071;23;20207;-93
2022/06/27 13:10:08;;;;;;;1.80;1.50;;;;;;;23.19;70.37;97210.09;6073562;23;20179;-94
2022/06/27 13:12:36;;;;;;;1.77;1.60;;;;;;;21.73;70.37;96946.94;6073565;23;20171;-93
2022/06/27 13:15:04;;;;;;;2.23;1.77;;;;;;;21.95;70.39;97017.31;6095419;23;20157;-93
2022/06/27 13:17:30;;;;;;;1.73;1.50;;;;;;;22.65;70.20;97117.69;6094993;23;20160;-93
2022/06/27 13:19:57;;;;;;;2.27;1.73;;;;;;;21.98;70.49;96994.34;6046771;23;20160;-92
2022/06/27 13:22:24;;;;;;;2.60;1.80;;;;;;;21.80;70.55;96985.47;6094151;23;20199;-93
2022/06/27 13:24:51;;;;;;;1.70;1.60;;;;;;;21.79;70.19;96976.06;6118158;23;20234;-93
2022/06/27 13:27:17;;;;;;;1.70;1.60;;;;;;;22.13;70.24;97039.84;6094479;23;20152;-92
2022/06/27 13:29:44;;;;;;;1.93;1.70;;;;;;;21.49;70.40;96931.13;6070891;23;20207;-94
2022/06/27 13:32:10;;;;;;;2.90;1.50;;;;;;;21.67;70.84;96982.63;6072992;23;20172;-93
2022/06/27 13:34:37;;;;;;;2.67;1.67;;;;;;;22.33;70.60;97089.72;6071893;23;20189;-93
2022/06/27 13:37:15;;;;;;;1.60;1.50;;;;;;;21.21;70.53;96887.94;6098975;23;20152;-92
2022/06/27 13:39:42;;;;;;;1.70;1.60;;;;;;;22.31;70.15;97065.78;6073987;23;20179;-93
2022/06/27 13:58:15;;;;;;;1.73;1.63;;;;;;;22.08;70.48;97036.34;6109616;23;20183;-94
2022/06/27 14:00:48;;;;;;;1.60;1.50;;;;;;;22.29;70.68;97072.59;6077844;23;20171;-94
2022/06/27 14:03:15;;;;;;;1.63;1.53;;;;;;;22.20;70.42;97065.59;6069784;23;20152;-93
2022/06/27 14:05:42;;;;;;;2.33;1.60;;;;;;;22.26;70.73;97070.81;6068727;23;20157;-93
2022/06/27 14:08:09;;;;;;;1.53;1.43;;;;;;;23.16;70.57;97228.88;6068739;23;20185;-93
2022/06/27 14:10:54;;;;;;;3.70;1.80;;;;;;;22.66;69.90;97136.50;6068751;23;20160;-93
2022/06/27 14:13:22;;;;;;;1.60;1.50;;;;;;;22.22;70.54;97097.19;6048470;23;20204;-93
2022/06/27 14:15:49;;;;;;;1.90;1.50;;;;;;;22.40;70.12;97130.84;6067640;23;20149;-93
2022/06/27 14:18:16;;;;;;;1.43;1.33;;;;;;;23.26;70.64;97261.53;6093152;23;20145;-93
2022/06/27 14:20:42;;;;;;;1.73;1.63;;;;;;;21.54;70.35;96970.44;6093866;23;20156;-93
2022/06/27 14:23:09;;;;;;;2.03;1.43;;;;;;;22.30;70.47;97112.72;6069051;23;20153;-93
2022/06/27 14:25:36;;;;;;;1.40;1.30;;;;;;;22.05;70.74;97072.13;6045965;23;20160;-93
2022/06/27 14:28:03;;;;;;;1.53;1.43;;;;;;;22.23;70.82;97104.03;6044989;23;20149;-93
2022/06/27 14:30:30;;;;;;;4.50;1.33;;;;;;;22.64;70.65;97174.00;6044859;23;20169;-93
2022/06/27 14:32:57;;;;;;;2.40;1.73;;;;;;;21.51;70.55;96969.50;6068013;23;20152;-93
2022/06/27 14:35:43;;;;;;;2.03;1.50;;;;;;;21.24;70.36;96934.00;6093590;23;20160;-93
2022/06/27 14:38:10;;;;;;;1.97;1.67;;;;;;;22.29;70.55;97122.06;6069796;23;20256;-93
2022/06/27 14:40:38;;;;;;;1.60;1.50;;;;;;;21.89;70.33;97045.34;6068995;23;20153;-93
2022/06/27 14:43:04;;;;;;;1.70;1.57;;;;;;;22.43;70.71;97160.75;6045276;23;20178;-93
2022/06/27 14:45:31;;;;;;;1.67;1.50;;;;;;;22.30;70.16;97138.31;6092921;23;20160;-93
2022/06/27 14:47:58;;;;;;;1.67;1.53;;;;;;;22.56;70.21;97155.94;6045656;23;20149;-93
2022/06/27 14:50:25;;;;;;;2.00;1.77;;;;;;;23.28;70.70;97297.47;6068554;23;20158;-93
2022/06/27 14:52:51;;;;;;;1.80;1.60;;;;;;;22.24;70.45;97125.38;6067867;23;20153;-92
2022/06/27 14:55:18;;;;;;;1.90;1.70;;;;;;;22.17;70.46;97097.94;6066983;23;20184;-91
2022/06/27 14:57:45;;;;;;;1.70;1.60;;;;;;;22.84;70.61;97232.50;6089905;23;20168;-94
2022/06/27 15:00:12;;;;;;;1.73;1.50;;;;;;;22.49;70.61;97168.56;6042472;23;20159;-93
2022/06/27 15:02:47;;;;;;;1.60;1.50;;;;;;;22.91;70.71;97247.16;6090044;23;20179;-93
2022/06/27 15:05:13;;;;;;;1.50;1.40;;;;;;;22.70;70.39;97210.88;6089338;23;20192;-92
2022/06/27 15:07:40;;;;;;;1.53;1.43;;;;;;;23.10;70.93;97285.16;6066108;23;20319;-93
2022/06/27 15:10:07;;;;;;;1.67;1.50;;;;;;;22.14;70.83;97108.13;6066623;23;20160;-93
2022/06/27 15:12:33;;;;;;;1.83;1.53;;;;;;;21.94;70.29;97101.72;6089730;23;20245;-92
2022/06/27 15:15:00;;;;;;;1.90;1.73;;;;;;;22.88;70.63;97248.78;6065772;23;20172;-93
2022/06/27 15:17:27;;;;;;;1.60;1.50;;;;;;;22.50;70.51;97191.66;6043107;23;20149;-93
2022/06/27 15:19:54;;;;;;;1.70;1.60;;;;;;;23.30;70.23;97324.03;6066125;23;20165;-93
2022/06/27 15:22:20;;;;;;;1.53;1.43;;;;;;;22.31;70.35;97170.75;6043134;23;20192;-93
2022/06/27 15:24:47;;;;;;;1.57;1.40;;;;;;;22.14;70.11;97136.28;6042631;23;20172;-93
2022/06/27 15:27:14;;;;;;;1.67;1.50;;;;;;;22.62;70.45;97199.59;6042012;23;20153;-93
2022/06/27 15:30:00;;;;;;;1.60;1.43;;;;;;;22.52;70.37;97189.13;6069963;23;20176;-93
2022/06/27 15:32:27;;;;;;;1.60;1.50;;;;;;;22.91;70.62;97248.84;6090723;23;20224;-93
2022/06/27 15:34:53;;;;;;;1.70;1.60;;;;;;;22.84;70.50;97231.63;6064701;23;20156;-93
2022/06/27 15:37:20;;;;;;;1.60;1.50;;;;;;;21.87;70.44;97076.84;6066847;23;20169;-93
2022/06/27 15:39:47;;;;;;;1.60;1.50;;;;;;;22.56;70.40;97184.09;6090728;23;20161;-93
2022/06/27 15:42:14;;;;;;;1.63;1.47;;;;;;;22.76;70.55;97222.94;6042270;23;20216;-93
2022/06/27 15:44:40;;;;;;;1.50;1.40;;;;;;;21.94;70.59;97071.91;6065838;23;20184;-93
2022/06/27 15:47:07;;;;;;;1.40;1.30;;;;;;;22.61;70.43;97197.88;6065683;23;20160;-93
2022/06/27 15:49:34;;;;;;;1.70;1.60;;;;;;;22.60;70.50;97187.59;6041961;23;20165;-92
2022/06/27 15:52:00;;;;;;;1.50;1.40;;;;;;;22.10;70.84;97102.06;6065474;23;20184;-93
2022/06/27 15:54:27;;;;;;;1.60;1.50;;;;;;;22.61;70.30;97194.44;6065742;23;20165;-92
2022/06/27 15:56:54;;;;;;;1.73;1.63;;;;;;;22.90;70.69;97247.13;6089930;23;20160;-93
2022/06/27 15:59:22;;;;;;;1.60;1.50;;;;;;;21.65;70.24;97053.31;6065619;23;20181;-93
2022/06/27 16:01:49;;;;;;;2.00;1.53;;;;;;;22.16;70.34;97127.78;6066027;23;20176;-93
2022/06/27 16:04:17;;;;;;;1.43;1.33;;;;;;;22.39;70.60;97171.78;6043425;23;20180;-93
2022/06/27 16:06:43;;;;;;;2.03;1.40;;;;;;;22.24;70.95;97141.63;6068118;23;20200;-93
2022/06/27 16:09:10;;;;;;;1.50;1.40;;;;;;;22.04;70.49;97119.88;6068306;23;20192;-93
2022/06/27 16:11:37;;;;;;;3.23;1.50;;;;;;;23.04;70.79;97277.31;6067997;23;20172;-93
2022/06/27 16:14:03;;;;;;;1.50;1.40;;;;;;;22.49;70.54;97186.47;6066525;23;20164;-93
2022/06/27 16:16:30;;;;;;;1.53;1.40;;;;;;;22.80;70.46;97261.44;6091616;23;20179;-94
2022/06/27 16:18:57;;;;;;;3.43;1.40;;;;;;;21.45;70.59;97017.94;6066584;23;20156;-93
2022/06/27 16:21:24;;;;;;;1.63;1.50;;;;;;;21.97;70.32;97115.47;6066987;23;20244;-93
2022/06/27 16:23:51;;;;;;;1.63;1.53;;;;;;;22.21;70.47;97151.81;6067349;23;20160;-94
2022/06/27 16:26:17;;;;;;;1.60;1.50;;;;;;;21.20;70.11;96996.09;6066509;23;20180;-93
2022/06/27 16:28:44;;;;;;;1.57;1.43;;;;;;;23.20;70.33;97325.50;6065768;23;20164;-93
2022/06/27 16:33:58;;;;;;;1.40;1.30;;;;;;;23.14;70.58;97309.13;6090846;23;20152;-94
2022/06/27 16:36:25;;;;;;;2.83;1.30;;;;;;;22.21;70.53;97146.69;6067440;23;20192;-93
2022/06/27 16:38:52;;;;;;;1.50;1.40;;;;;;;21.69;70.31;97044.91;6066922;23;20168;-93
2022/06/27 16:41:18;;;;;;;3.50;1.47;;;;;;;21.91;70.24;97082.06;6065827;23;20173;-94
2022/06/27 16:43:45;;;;;;;1.40;1.30;;;;;;;21.82;70.39;97065.66;6065887;23;20156;-93
2022/06/27 16:46:12;;;;;;;1.40;1.30;;;;;;;22.19;70.37;97137.22;6089608;23;20180;-93
2022/06/27 16:48:39;;;;;;;1.73;1.43;;;;;;;21.50;70.53;97008.69;6065691;23;20195;-93
2022/06/27 16:51:06;;;;;;;1.40;1.30;;;;;;;22.90;70.63;97255.69;6089163;23;20197;-92
2022/06/27 16:53:34;;;;;;;1.50;1.40;;;;;;;22.40;70.48;97176.94;6042055;23;20173;-92
2022/06/27 16:56:01;;;;;;;1.30;1.30;;;;;;;22.56;70.89;97201.19;6064472;23;20608;-92
2022/06/27 16:58:27;;;;;;;5.30;2.10;;;;;;;22.03;70.71;97136.06;6087838;23;20208;-92
2022/06/27 17:00:54;;;;;;;11.73;2.37;;;;;;;22.83;70.30;97261.50;6065109;23;20167;-92
2022/06/27 17:03:21;;;;;;;7.10;1.87;;;;;;;22.42;69.70;97190.63;6064932;23;20183;-92
2022/06/27 17:05:47;;;;;;;12.50;2.50;;;;;;;22.42;70.14;97182.97;6089653;23;20181;-92
2022/06/27 17:08:14;;;;;;;8.20;2.20;;;;;;;23.21;70.12;97304.13;6089973;23;20164;-92
2022/06/27 17:10:41;;;;;;;7.13;2.27;;;;;;;22.51;70.50;97197.66;6089598;23;20200;-91
2022/06/27 17:13:12;;;;;;;9.07;2.33;;;;;;;22.54;70.44;97210.53;6064888;23;20185;-91
2022/06/27 17:15:39;;;;;;;6.70;2.13;;;;;;;23.29;70.42;97324.84;6087905;23;20153;-91
2022/06/27 17:18:07;;;;;;;8.00;2.50;;;;;;;22.71;70.28;97238.19;6065481;23;20180;-91
2022/06/27 17:20:33;;;;;;;11.50;2.50;;;;;;;22.84;70.60;97260.69;6088007;23;20235;-92
2022/06/27 17:23:00;;;;;;;7.40;1.97;;;;;;;23.23;70.66;97342.63;6089640;23;20200;-92
2022/06/27 17:25:27;;;;;;;7.17;2.27;;;;;;;22.55;70.45;97241.31;6089820;23;20183;-92
2022/06/27 17:27:53;;;;;;;11.43;2.30;;;;;;;22.84;70.41;97298.25;6091884;23;20172;-91
2022/06/27 17:30:20;;;;;;;7.20;2.20;;;;;;;22.86;70.68;97310.25;6091724;23;20161;-91
2022/06/27 17:32:47;;;;;;;10.20;2.40;;;;;;;22.87;70.63;97317.13;6091087;23;20172;-91
2022/06/27 17:37:49;;;;;;;7.60;1.93;;;;;;;22.06;70.56;97189.88;6104026;23;20185;-91
2022/06/27 17:40:15;;;;;;;8.27;2.40;;;;;;;23.22;71.16;97380.25;6121260;23;20184;-92
2022/06/27 17:42:42;;;;;;;6.37;2.30;;;;;;;23.23;70.69;97384.53;6120062;23;20210;-91
2022/06/27 17:45:13;;;;;;;5.30;2.33;;;;;;;23.17;70.85;97371.59;6119728;23;20210;-92
2022/06/27 17:47:43;;;;;;;10.03;2.50;;;;;;;22.67;70.68;97284.22;6119031;23;20405;-92
2022/06/27 17:50:10;;;;;;;6.10;2.03;;;;;;;22.64;70.42;97282.47;6071671;23;20164;-92
2022/06/27 17:52:37;;;;;;;10.27;2.73;;;;;;;22.83;70.73;97330.69;6093978;23;20187;-91
2022/06/27 17:55:05;;;;;;;14.37;3.27;;;;;;;22.71;70.32;97314.22;6094905;23;20236;-92
2022/06/27 17:57:32;;;;;;;13.37;3.60;;;;;;;23.24;70.58;97419.63;6072110;23;20171;-92
2022/06/27 17:59:58;;;;;;;28.50;4.63;;;;;;;22.89;70.32;97360.72;6095606;23;20374;-92
2022/06/27 18:02:25;;;;;;;15.83;4.30;;;;;;;23.32;70.50;97432.59;6095052;23;20168;-91
2022/06/27 18:04:52;;;;;;;13.10;3.37;;;;;;;22.85;70.58;97380.28;6120437;23;20259;-91
2022/06/27 18:07:19;;;;;;;11.27;3.40;;;;;;;22.58;70.30;97353.19;6120180;23;20163;-91
2022/06/27 18:09:46;;;;;;;12.93;2.90;;;;;;;23.21;70.62;97452.84;6095095;23;20225;-91
2022/06/27 18:31:07;;;;;;;8.80;3.00;;;;;;;21.52;70.21;97134.84;6108413;23;20211;-90
